Time;durP1;ratioP1;P1;durP2;ratioP2;P2;SDS_P1;SDS_P2;PMS_P1;PMS_P2;Temp;Humidity;BMP_temperature;BMP_pressure;BME280_temperature;BME280_humidity;BME280_pressure;Samples;Min_cycle;Max_cycle;Signal;HPM_P1;HPM_P2
2022/05/30 00:00:26;;;;;;;7.80;2.30;;;;;;;7.31;100.00;101344.38;5053618;28;20033;-59
2022/05/30 00:02:52;;;;;;;12.55;2.70;;;;;;;7.30;100.00;101334.78;5052538;28;20052;-60
2022/05/30 00:05:19;;;;;;;6.90;2.55;;;;;;;7.32;100.00;101347.00;5053835;28;20499;-58
2022/05/30 00:07:45;;;;;;;5.65;2.53;;;;;;;7.21;100.00;101333.13;5052255;28;20052;-57
2022/05/30 00:10:12;;;;;;;5.97;2.30;;;;;;;7.24;100.00;101351.41;5053495;28;20468;-58
2022/05/30 00:12:38;;;;;;;8.02;2.30;;;;;;;7.22;100.00;101347.09;5052032;28;20449;-58
2022/05/30 00:15:05;;;;;;;6.45;2.63;;;;;;;7.16;100.00;101324.47;5051929;28;20166;-59
2022/05/30 00:17:31;;;;;;;9.38;2.70;;;;;;;7.12;100.00;101314.88;5053041;28;20515;-58
2022/05/30 00:19:56;;;;;;;10.75;2.70;;;;;;;7.08;100.00;101318.44;5051892;28;20069;-58
2022/05/30 00:22:21;;;;;;;7.50;2.45;;;;;;;7.02;100.00;101305.41;5053148;28;20029;-58
2022/05/30 00:24:47;;;;;;;6.70;2.35;;;;;;;6.68;100.00;101246.47;5052411;28;20029;-60
2022/05/30 00:27:12;;;;;;;8.70;2.42;;;;;;;7.04;100.00;101318.47;5053209;28;20116;-57
2022/05/30 00:29:38;;;;;;;8.80;2.60;;;;;;;7.01;100.00;101310.66;5051617;28;20387;-58
2022/05/30 00:32:05;;;;;;;4.97;2.25;;;;;;;7.02;100.00;101318.50;5053011;28;20033;-58
2022/05/30 00:34:31;;;;;;;10.32;2.05;;;;;;;6.95;100.00;101305.47;5053101;28;20064;-60
2022/05/30 00:36:56;;;;;;;5.03;2.33;;;;;;;7.02;100.00;101315.00;5053024;28;20084;-60
2022/05/30 00:39:21;;;;;;;6.43;2.70;;;;;;;7.00;100.00;101306.31;5051872;28;20560;-59
2022/05/30 00:41:47;;;;;;;5.47;2.72;;;;;;;6.98;100.00;101315.91;5052598;28;20043;-60
2022/05/30 00:44:12;;;;;;;8.13;2.55;;;;;;;6.92;100.00;101306.38;5052853;28;20029;-60
2022/05/30 00:46:38;;;;;;;14.57;2.92;;;;;;;6.95;100.00;101310.72;5053431;28;20041;-61
2022/05/30 00:49:07;;;;;;;8.68;2.00;;;;;;;6.94;100.00;101307.25;5051415;28;20112;-60
2022/05/30 00:51:43;;;;;;;9.48;2.83;;;;;;;6.95;100.00;101314.19;5052891;28;20060;-60
2022/05/30 00:54:10;;;;;;;9.73;3.15;;;;;;;6.88;100.00;101306.44;5052781;28;20036;-60
2022/05/30 00:56:41;;;;;;;10.70;2.78;;;;;;;6.72;100.00;101263.84;5051158;28;20400;-61
2022/05/30 00:59:06;;;;;;;8.18;2.33;;;;;;;6.79;100.00;101276.00;5051490;28;20064;-60
2022/05/30 01:01:33;;;;;;;7.25;2.95;;;;;;;6.97;100.00;101311.59;5051185;28;20049;-60
2022/05/30 01:06:45;;;;;;;9.93;3.20;;;;;;;6.90;100.00;101271.53;5051183;28;20067;-60
2022/05/30 01:09:21;;;;;;;5.35;2.17;;;;;;;7.25;100.00;101305.16;5050969;28;20037;-59
2022/05/30 01:11:50;;;;;;;9.23;2.83;;;;;;;7.09;100.00;101254.72;5050998;28;20488;-61
2022/05/30 01:14:16;;;;;;;8.80;2.80;;;;;;;7.08;100.00;101247.75;5052378;28;20029;-60
2022/05/30 01:16:42;;;;;;;5.97;2.95;;;;;;;7.30;100.00;101266.69;5050896;28;20099;-60
2022/05/30 01:19:25;;;;;;;9.00;3.00;;;;;;;7.58;100.00;101301.28;5050832;28;20037;-59
2022/05/30 01:22:14;;;;;;;7.22;2.92;;;;;;;7.64;100.00;101301.19;5050903;28;20399;-59
2022/05/30 01:24:49;;;;;;;10.85;3.10;;;;;;;7.70;100.00;101294.13;5052100;28;20033;-60
2022/05/30 01:27:37;;;;;;;6.57;2.40;;;;;;;7.76;100.00;101291.41;5052127;28;20048;-59
2022/05/30 01:30:07;;;;;;;8.35;2.50;;;;;;;7.56;100.00;101248.03;5050657;28;20033;-59
2022/05/30 01:32:32;;;;;;;12.18;2.80;;;;;;;7.82;100.00;101287.84;5051992;28;20025;-59
2022/05/30 01:34:58;;;;;;;8.07;2.78;;;;;;;7.87;100.00;101289.53;5051968;28;20087;-59
2022/05/30 01:37:24;;;;;;;6.80;2.65;;;;;;;7.61;100.00;101241.84;5050766;28;20033;-59
2022/05/30 01:39:49;;;;;;;8.25;2.83;;;;;;;7.92;100.00;101271.97;5051891;28;20033;-60
2022/05/30 01:42:16;;;;;;;6.25;2.50;;;;;;;7.88;100.00;101261.56;5051884;28;20029;-59
2022/05/30 01:44:41;;;;;;;7.03;2.47;;;;;;;7.96;100.00;101264.06;5051767;28;20037;-59
2022/05/30 01:47:06;;;;;;;7.13;2.63;;;;;;;8.04;100.00;101278.78;5051955;28;20048;-59
2022/05/30 01:49:32;;;;;;;9.00;2.60;;;;;;;8.10;100.00;101275.19;5051880;28;20033;-60
2022/05/30 01:51:57;;;;;;;6.82;2.47;;;;;;;8.10;100.00;101275.19;5051431;28;20033;-59
2022/05/30 01:54:22;;;;;;;10.10;2.50;;;;;;;8.06;100.00;101271.75;5051759;28;20140;-60
2022/05/30 01:56:48;;;;;;;6.70;2.38;;;;;;;8.21;100.00;101291.63;5050249;28;20056;-60
2022/05/30 01:59:14;;;;;;;6.40;2.10;;;;;;;7.86;100.00;101213.53;5051847;28;20435;-57
2022/05/30 02:01:44;;;;;;;9.07;2.45;;;;;;;8.10;100.00;101254.22;5051854;28;20388;-59
2022/05/30 02:04:10;;;;;;;5.73;2.60;;;;;;;8.14;100.00;101266.41;5050419;28;20036;-58
2022/05/30 02:06:36;;;;;;;8.82;3.03;;;;;;;8.24;100.00;101278.47;5050305;28;20797;-59
2022/05/30 02:09:01;;;;;;;7.00;2.13;;;;;;;8.18;100.00;101268.06;5051384;28;20061;-58
2022/05/30 02:11:28;;;;;;;7.70;2.58;;;;;;;8.23;100.00;101274.97;5051416;28;20095;-59
2022/05/30 02:13:53;;;;;;;8.70;2.42;;;;;;;8.24;100.00;101268.84;5051723;28;20344;-59
2022/05/30 02:19:03;;;;;;;7.97;2.28;;;;;;;8.21;100.00;101258.41;5051366;28;20434;-59
2022/05/30 02:21:31;;;;;;;12.10;2.45;;;;;;;7.95;100.00;101218.63;5050090;28;20075;-60
2022/05/30 02:23:57;;;;;;;12.38;2.55;;;;;;;8.18;100.00;101255.81;5051318;28;20060;-60
2022/05/30 02:26:22;;;;;;;8.52;2.70;;;;;;;8.15;100.00;101249.75;5050065;28;20057;-60
2022/05/30 02:28:48;;;;;;;8.18;2.75;;;;;;;8.20;100.00;101266.31;5051624;28;20036;-60
2022/05/30 02:31:13;;;;;;;7.25;2.05;;;;;;;7.94;100.00;101227.38;5050025;28;20048;-60
2022/05/30 02:36:41;;;;;;;10.05;3.15;;;;;;;8.12;100.00;101268.16;5049900;28;20079;-59
2022/05/30 02:39:17;;;;;;;10.57;2.72;;;;;;;8.08;100.00;101271.75;5051476;28;20358;-59
2022/05/30 02:41:44;;;;;;;8.77;2.60;;;;;;;7.75;100.00;101223.31;5033396;28;20468;-61
2022/05/30 02:44:10;;;;;;;4.95;2.35;;;;;;;7.64;100.00;101217.34;5049805;28;20467;-59
2022/05/30 02:46:35;;;;;;;10.20;2.80;;;;;;;7.68;100.00;101237.38;5050973;28;20147;-60
2022/05/30 02:49:01;;;;;;;8.52;2.60;;;;;;;7.77;100.00;101272.19;5033077;28;20037;-60
2022/05/30 02:51:26;;;;;;;7.82;2.67;;;;;;;7.34;100.00;101214.28;5050467;28;20040;-60
2022/05/30 02:53:51;;;;;;;5.22;2.10;;;;;;;7.30;100.00;101217.81;5051228;28;20095;-60
2022/05/30 02:56:17;;;;;;;7.88;2.45;;;;;;;7.53;100.00;101267.25;5050693;28;20049;-60
2022/05/30 02:58:43;;;;;;;7.85;2.60;;;;;;;7.46;100.00;101270.88;5049632;28;20079;-60
2022/05/30 03:01:09;;;;;;;8.43;2.88;;;;;;;7.41;100.00;101262.22;5049795;28;20391;-58
2022/05/30 03:03:35;;;;;;;9.05;2.78;;;;;;;7.41;100.00;101269.19;5053100;28;20033;-58
2022/05/30 03:06:01;;;;;;;6.28;2.85;;;;;;;7.06;100.00;101212.03;5054669;28;20033;-58
2022/05/30 03:08:26;;;;;;;11.90;2.65;;;;;;;7.29;100.00;101262.34;5053224;28;20426;-59
2022/05/30 03:10:52;;;;;;;6.07;2.60;;;;;;;7.25;100.00;101264.13;5053258;28;20047;-59
2022/05/30 03:13:17;;;;;;;9.70;2.78;;;;;;;7.17;100.00;101260.75;5054560;28;20044;-60
2022/05/30 03:15:42;;;;;;;7.18;2.30;;;;;;;7.20;100.00;101265.94;5053085;28;20036;-58
2022/05/30 03:18:08;;;;;;;6.30;2.55;;;;;;;7.17;100.00;101266.00;5054496;28;20067;-59
2022/05/30 03:20:35;;;;;;;8.88;2.47;;;;;;;7.14;100.00;101258.16;5054575;28;20033;-61
2022/05/30 03:23:00;;;;;;;4.38;2.63;;;;;;;6.82;100.00;101207.06;5054191;28;20210;-60
2022/05/30 03:25:25;;;;;;;7.30;2.90;;;;;;;7.05;100.00;101245.19;5054356;28;20480;-60
2022/05/30 03:27:52;;;;;;;6.85;2.78;;;;;;;7.10;100.00;101271.28;5052884;28;20033;-60
2022/05/30 03:30:18;;;;;;;9.20;2.70;;;;;;;6.98;100.00;101247.88;5052927;28;20110;-60
2022/05/30 03:32:43;;;;;;;7.05;3.03;;;;;;;6.99;100.00;101263.56;5036436;28;20061;-60
2022/05/30 03:35:09;;;;;;;4.72;2.35;;;;;;;6.93;100.00;101253.16;5054172;28;20037;-61
2022/05/30 03:37:36;;;;;;;17.08;3.25;;;;;;;6.88;100.00;101254.09;5053775;28;20036;-60
2022/05/30 03:40:03;;;;;;;6.38;2.80;;;;;;;6.79;100.00;101263.78;5053965;28;20444;-60
2022/05/30 03:42:28;;;;;;;9.88;2.90;;;;;;;6.77;100.00;101262.06;5052678;28;20033;-60
2022/05/30 03:44:54;;;;;;;8.48;2.67;;;;;;;6.71;100.00;101270.81;5052429;28;20458;-61
2022/05/30 03:47:19;;;;;;;8.98;2.85;;;;;;;6.35;100.00;101226.72;5053635;28;20163;-59
2022/05/30 03:49:44;;;;;;;6.55;2.90;;;;;;;6.60;100.00;101258.72;5054109;28;20125;-59
2022/05/30 03:52:10;;;;;;;8.40;2.78;;;;;;;6.57;100.00;101267.47;5053847;28;20041;-60
2022/05/30 03:54:35;;;;;;;6.82;3.17;;;;;;;6.53;100.00;101262.31;5053795;28;20091;-61
2022/05/30 03:57:01;;;;;;;6.30;3.03;;;;;;;6.22;100.00;101220.72;5053630;28;20053;-60
2022/05/30 03:59:26;;;;;;;8.70;3.10;;;;;;;6.49;100.00;101257.97;5052406;28;20136;-59
2022/05/30 04:01:52;;;;;;;5.18;2.63;;;;;;;6.25;100.00;101219.84;5053198;28;20037;-60
2022/05/30 04:04:17;;;;;;;12.95;3.72;;;;;;;6.20;100.00;101217.28;5052290;28;20037;-60
2022/05/30 04:06:43;;;;;;;9.68;2.92;;;;;;;6.19;100.00;101206.81;5053553;28;20456;-60
2022/05/30 04:09:08;;;;;;;6.28;3.17;;;;;;;6.51;100.00;101258.84;5053574;28;20445;-59
2022/05/30 04:11:35;;;;;;;5.10;3.03;;;;;;;6.48;100.00;101251.03;5053463;28;20556;-60
2022/05/30 04:14:01;;;;;;;9.43;3.20;;;;;;;6.40;100.00;101242.34;5052029;28;20103;-61
2022/05/30 04:16:27;;;;;;;5.18;3.13;;;;;;;6.28;100.00;101217.19;5051801;28;20059;-59
2022/05/30 04:18:52;;;;;;;10.70;3.17;;;;;;;6.47;100.00;101244.06;5053305;28;20128;-60
2022/05/30 04:21:17;;;;;;;14.40;3.67;;;;;;;6.49;100.00;101245.75;5051975;28;20484;-59
2022/05/30 04:23:43;;;;;;;9.20;3.20;;;;;;;6.55;100.00;101250.06;5051964;28;20077;-59
2022/05/30 04:26:11;;;;;;;8.75;3.95;;;;;;;6.55;100.00;101243.09;5053336;28;20120;-61
2022/05/30 04:28:36;;;;;;;10.45;3.30;;;;;;;6.51;100.00;101230.09;5051875;28;20029;-59
2022/05/30 04:31:12;;;;;;;11.10;3.90;;;;;;;6.62;100.00;101238.69;5053034;28;20033;-61
2022/05/30 04:33:39;;;;;;;10.13;3.90;;;;;;;6.55;100.00;101216.06;5051946;28;20128;-59
2022/05/30 04:36:10;;;;;;;11.50;3.70;;;;;;;6.64;100.00;101223.81;5051768;28;20037;-60
2022/05/30 04:38:36;;;;;;;9.93;4.25;;;;;;;6.64;100.00;101209.00;5051897;28;20071;-59
2022/05/30 04:41:02;;;;;;;15.25;3.92;;;;;;;6.86;100.00;101232.34;5053005;28;20033;-59
2022/05/30 04:43:29;;;;;;;10.90;3.78;;;;;;;6.75;100.00;101211.50;5051471;28;20471;-59
2022/05/30 04:46:07;;;;;;;8.82;3.60;;;;;;;6.73;100.00;101203.69;5053051;28;20045;-58
2022/05/30 04:48:32;;;;;;;7.18;3.80;;;;;;;6.94;100.00;101231.38;5051704;28;20457;-59
2022/05/30 04:50:57;;;;;;;8.57;3.50;;;;;;;7.13;100.00;101253.81;5051585;28;20108;-59
2022/05/30 04:53:23;;;;;;;10.82;3.60;;;;;;;7.15;100.00;101245.94;5052746;28;20073;-60
2022/05/30 04:55:48;;;;;;;7.07;2.95;;;;;;;7.20;100.00;101247.63;5052215;28;20064;-60
2022/05/30 04:58:13;;;;;;;6.13;2.90;;;;;;;7.29;100.00;101247.50;5052325;28;20036;-61
2022/05/30 05:00:39;;;;;;;6.22;3.35;;;;;;;7.34;100.00;101248.31;5052295;28;20031;-60
2022/05/30 05:03:04;;;;;;;12.35;3.03;;;;;;;7.35;100.00;101247.41;5052550;28;20033;-59
2022/05/30 05:05:29;;;;;;;6.82;2.95;;;;;;;7.40;100.00;101241.25;5052518;28;20037;-60
2022/05/30 05:08:13;;;;;;;8.82;3.70;;;;;;;7.51;100.00;101250.72;5052518;28;20037;-60
2022/05/30 05:10:59;;;;;;;3.90;2.28;;;;;;;7.56;100.00;101255.91;5052495;28;20029;-59
2022/05/30 05:13:24;;;;;;;8.18;3.08;;;;;;;7.60;100.00;101253.22;5051646;28;20135;-59
2022/05/30 05:15:55;;;;;;;8.55;2.83;;;;;;;7.63;100.00;101249.69;5050651;28;20523;-60
2022/05/30 05:18:21;;;;;;;6.05;2.25;;;;;;;7.70;100.00;101246.09;5051407;28;20032;-60
2022/05/30 05:20:46;;;;;;;5.78;2.15;;;;;;;7.68;100.00;101233.00;5051471;28;20494;-60
2022/05/30 05:23:11;;;;;;;4.95;2.13;;;;;;;7.76;100.00;101225.88;5051429;28;20036;-58
2022/05/30 05:25:38;;;;;;;8.45;1.83;;;;;;;8.02;100.00;101249.09;5050941;28;20094;-58
2022/05/30 05:28:04;;;;;;;11.60;2.25;;;;;;;8.28;100.00;101262.72;5050973;28;20188;-61
2022/05/30 05:30:30;;;;;;;3.88;2.05;;;;;;;8.46;100.00;101261.53;5052145;28;20111;-60
2022/05/30 05:32:56;;;;;;;5.85;1.50;;;;;;;8.63;100.00;101251.59;5052099;28;20119;-60
2022/05/30 05:35:22;;;;;;;5.30;2.03;;;;;;;8.80;100.00;101262.66;5051854;28;20037;-61
2022/05/30 05:37:47;;;;;;;9.30;1.63;;;;;;;8.98;100.00;101267.56;5051716;28;20068;-59
2022/05/30 05:40:12;;;;;;;4.32;1.65;;;;;;;8.83;100.00;101217.97;5051737;28;20040;-60
2022/05/30 05:42:38;;;;;;;4.47;1.48;;;;;;;9.04;100.00;101216.69;5051712;28;20372;-59
2022/05/30 05:45:03;;;;;;;9.65;1.90;;;;;;;9.33;100.00;101243.22;5051749;28;20032;-59
2022/05/30 05:47:29;;;;;;;2.53;1.60;;;;;;;9.64;100.00;101272.34;5051786;28;20376;-59
2022/05/30 05:49:54;;;;;;;4.57;1.30;;;;;;;9.78;100.00;101280.78;5051918;28;20052;-59
2022/05/30 05:52:20;;;;;;;6.47;1.38;;;;;;;9.88;100.00;101284.09;5050284;28;20025;-60
2022/05/30 05:54:46;;;;;;;8.23;1.92;;;;;;;10.01;100.00;101290.81;5052130;28;20434;-59
2022/05/30 05:57:11;;;;;;;3.88;1.10;;;;;;;10.14;100.00;101298.41;5050411;28;20348;-60
2022/05/30 05:59:37;;;;;;;3.95;1.00;;;;;;;10.28;100.00;101302.47;5051474;28;20079;-60
2022/05/30 06:02:05;;;;;;;5.63;1.55;;;;;;;10.42;100.00;101311.75;5050399;28;20124;-60
2022/05/30 06:04:30;;;;;;;4.70;1.45;;;;;;;10.51;100.00;101302.78;5051561;28;20029;-57
2022/05/30 06:07:01;;;;;;;7.53;1.33;;;;;;;10.40;100.00;101265.34;5051461;28;20124;-58
2022/05/30 06:09:27;;;;;;;4.70;1.30;;;;;;;10.84;100.00;101324.75;5051379;28;20496;-61
2022/05/30 06:11:53;;;;;;;6.07;1.33;;;;;;;10.87;100.00;101317.66;5050047;28;20128;-61
2022/05/30 06:14:19;;;;;;;5.05;1.58;;;;;;;11.11;100.00;101319.66;5051667;28;20124;-59
2022/05/30 06:16:44;;;;;;;4.53;1.05;;;;;;;11.21;100.00;101307.06;5051291;28;20128;-59
2022/05/30 06:19:10;;;;;;;5.00;1.35;;;;;;;11.12;100.00;101281.84;5051563;28;20040;-59
2022/05/30 06:21:36;;;;;;;3.55;1.02;;;;;;;11.12;100.00;101266.03;5051284;28;20540;-57
2022/05/30 06:24:01;;;;;;;4.90;1.77;;;;;;;11.65;100.00;101340.09;5051591;28;20084;-58
2022/05/30 06:26:27;;;;;;;5.65;0.90;;;;;;;11.65;100.00;101334.81;5050080;28;20039;-57
2022/05/30 06:28:56;;;;;;;3.08;0.90;;;;;;;11.67;100.00;101328.59;5050106;28;20033;-58
2022/05/30 06:31:27;;;;;;;2.30;0.77;;;;;;;11.84;100.00;101331.66;5051445;28;20049;-58
2022/05/30 06:33:53;;;;;;;2.80;0.70;;;;;;;11.79;100.00;101299.25;5051302;28;20036;-58
2022/05/30 06:36:20;;;;;;;2.00;0.80;;;;;;;11.76;100.00;101275.59;5049917;28;20480;-58
2022/05/30 06:38:47;;;;;;;2.53;0.60;;;;;;;12.17;100.00;101344.72;5054259;28;20040;-56
2022/05/30 06:41:27;;;;;;;3.85;0.70;;;;;;;12.37;100.00;101351.09;5053981;28;20063;-58
2022/05/30 06:43:54;;;;;;;11.07;1.88;;;;;;;12.68;100.00;101331.63;5054944;28;20029;-58
2022/05/30 06:46:19;;;;;;;2.80;0.85;;;;;;;13.06;100.00;101344.41;5055047;28;20025;-60
2022/05/30 06:48:46;;;;;;;3.78;1.05;;;;;;;13.26;100.00;101352.53;5054887;28;20032;-59
2022/05/30 06:51:13;;;;;;;3.63;0.90;;;;;;;13.40;100.00;101357.31;5053979;28;20041;-54
2022/05/30 06:53:43;;;;;;;6.45;1.23;;;;;;;13.37;100.00;101341.56;5054929;28;20119;-57
2022/05/30 06:56:20;;;;;;;4.53;1.35;;;;;;;13.14;100.00;101323.00;5054577;28;20048;-59
2022/05/30 06:58:47;;;;;;;2.92;0.63;;;;;;;12.97;100.00;101307.72;5054815;28;20033;-58
2022/05/30 07:01:13;;;;;;;1.17;0.50;;;;;;;12.78;100.00;101309.28;5053625;28;20040;-56
2022/05/30 07:03:39;;;;;;;5.13;0.70;;;;;;;12.84;100.00;101369.84;5053058;28;20507;-59
2022/05/30 07:06:10;;;;;;;1.63;0.68;;;;;;;12.77;100.00;101374.44;5051738;28;20033;-58
2022/05/30 07:08:36;;;;;;;2.80;0.85;;;;;;;12.70;100.00;101362.34;5052244;28;20025;-58
2022/05/30 07:11:01;;;;;;;1.67;0.63;;;;;;;12.45;100.00;101364.06;5052281;28;20037;-57
2022/05/30 07:13:28;;;;;;;2.47;0.82;;;;;;;12.40;100.00;101350.16;5052093;28;20132;-57
2022/05/30 07:15:53;;;;;;;5.93;1.13;;;;;;;12.34;100.00;101361.78;5053443;28;20037;-57
2022/05/30 07:18:19;;;;;;;4.40;1.00;;;;;;;12.16;100.00;101356.19;5053448;28;20035;-58
2022/05/30 07:20:47;;;;;;;2.85;1.02;;;;;;;12.17;100.00;101358.75;5053274;28;20396;-58
2022/05/30 07:23:13;;;;;;;1.95;0.77;;;;;;;11.86;100.00;101307.84;5053349;28;20454;-58
2022/05/30 07:25:41;;;;;;;4.65;0.93;;;;;;;12.25;100.00;101353.28;5052017;28;20120;-57
2022/05/30 07:28:07;;;;;;;2.47;1.02;;;;;;;11.83;100.00;101300.88;5053103;28;20059;-54
2022/05/30 07:30:35;;;;;;;1.83;0.80;;;;;;;12.11;100.00;101347.56;5053418;28;20143;-57
2022/05/30 07:33:01;;;;;;;3.10;1.23;;;;;;;12.26;100.00;101344.41;5053530;28;20166;-56
2022/05/30 07:35:26;;;;;;;2.60;0.80;;;;;;;12.34;100.00;101352.97;5053378;28;20032;-59
2022/05/30 07:37:52;;;;;;;6.63;1.30;;;;;;;12.40;100.00;101353.63;5053063;28;20537;-59
2022/05/30 07:40:17;;;;;;;3.47;0.90;;;;;;;12.04;100.00;101293.22;5053261;28;20080;-54
2022/05/30 07:42:43;;;;;;;2.08;0.77;;;;;;;12.24;100.00;101310.16;5053016;28;20033;-58
2022/05/30 07:45:10;;;;;;;5.22;1.00;;;;;;;12.15;100.00;101299.91;5053346;28;20468;-58
2022/05/30 07:47:36;;;;;;;3.40;0.68;;;;;;;12.36;100.00;101291.31;5052028;28;20415;-53
2022/05/30 07:50:02;;;;;;;1.95;0.65;;;;;;;12.81;100.00;101362.00;5052469;28;20033;-56
2022/05/30 07:52:32;;;;;;;2.97;0.82;;;;;;;13.04;100.00;101292.53;5052556;28;20478;-58
2022/05/30 07:54:58;;;;;;;3.30;0.70;;;;;;;13.75;100.00;101375.41;5052672;28;20052;-57
2022/05/30 07:57:50;;;;;;;1.33;0.60;;;;;;;13.49;100.00;101371.09;5052939;28;20411;-56
2022/05/30 08:00:11;;;;;;;3.35;0.75;;;;;;;13.81;100.00;101358.44;5052794;28;20158;-56
2022/05/30 08:02:38;;;;;;;1.67;0.60;;;;;;;13.42;100.00;101366.09;5051520;28;20413;-59
2022/05/30 08:05:06;;;;;;;2.92;1.02;;;;;;;12.99;100.00;101348.16;5052925;28;20106;-62
2022/05/30 08:07:31;;;;;;;2.10;0.80;;;;;;;13.09;100.00;101348.75;5050899;28;20033;-59
2022/05/30 08:09:57;;;;;;;3.05;0.90;;;;;;;12.71;100.00;101318.31;5051892;28;20037;-57
2022/05/30 08:12:22;;;;;;;3.40;0.80;;;;;;;12.66;100.00;101357.22;5052796;28;20127;-61
2022/05/30 08:14:47;;;;;;;0.73;0.57;;;;;;;12.52;100.00;101368.22;5052758;28;20033;-59
2022/05/30 08:17:13;;;;;;;1.05;0.57;;;;;;;11.92;100.00;101336.69;5052387;28;20091;-60
2022/05/30 08:19:40;;;;;;;2.28;0.55;;;;;;;11.77;100.00;101345.91;5052519;28;20105;-59
2022/05/30 08:22:09;;;;;;;3.85;1.13;;;;;;;11.40;100.00;101352.25;5052895;28;20380;-60
2022/05/30 08:24:36;;;;;;;3.92;0.90;;;;;;;11.23;100.00;101344.81;5051934;28;20127;-61
2022/05/30 08:27:03;;;;;;;3.85;0.90;;;;;;;11.25;100.00;101349.13;5034531;28;20021;-58
2022/05/30 08:29:29;;;;;;;1.77;1.10;;;;;;;11.28;100.00;101324.44;5052494;28;20033;-59
2022/05/30 08:31:54;;;;;;;2.25;0.82;;;;;;;11.29;100.00;101345.47;5052679;28;20064;-58
2022/05/30 08:34:20;;;;;;;3.00;0.77;;;;;;;11.27;100.00;101351.69;5052310;28;20092;-58
2022/05/30 08:36:45;;;;;;;1.08;0.82;;;;;;;11.40;100.00;101349.59;5051827;28;20037;-58
2022/05/30 08:41:54;;;;;;;3.05;0.80;;;;;;;11.65;100.00;101334.81;5052243;28;20171;-59
2022/05/30 08:44:20;;;;;;;3.25;1.15;;;;;;;11.66;100.00;101363.78;5052085;28;20475;-56
2022/05/30 08:47:17;;;;;;;3.28;0.70;;;;;;;11.82;100.00;101345.78;5052245;28;20427;-59
2022/05/30 08:49:46;;;;;;;1.98;0.82;;;;;;;12.07;100.00;101351.19;5051986;28;20037;-58
2022/05/30 08:52:30;;;;;;;3.30;0.80;;;;;;;12.35;100.00;101363.47;5052096;28;20040;-58
2022/05/30 08:55:07;;;;;;;2.45;0.80;;;;;;;12.39;100.00;101365.13;5051568;28;20480;-59
2022/05/30 08:58:08;;;;;;;1.75;0.75;;;;;;;12.42;100.00;101366.78;5049643;28;20492;-60
2022/05/30 09:00:41;;;;;;;1.50;0.63;;;;;;;11.99;100.00;101300.44;5028389;28;20561;-60
2022/05/30 09:03:17;;;;;;;3.00;0.95;;;;;;;12.46;100.00;101363.16;5043947;28;20123;-60
2022/05/30 09:05:47;;;;;;;3.10;0.80;;;;;;;12.41;100.00;101365.06;5033882;28;20041;-59
2022/05/30 09:08:19;;;;;;;2.03;0.65;;;;;;;12.39;100.00;101375.69;5050034;28;20182;-58
2022/05/30 09:10:57;;;;;;;3.38;1.23;;;;;;;12.20;100.00;101308.53;5051274;28;20120;-60
2022/05/30 09:13:43;;;;;;;3.70;0.80;;;;;;;12.71;100.00;101356.16;5050255;28;20537;-56
2022/05/30 09:16:08;;;;;;;1.80;0.85;;;;;;;12.62;100.00;101367.03;5051429;28;20155;-59
2022/05/30 09:18:45;;;;;;;1.88;0.90;;;;;;;12.66;100.00;101357.22;5051215;28;20075;-55
2022/05/30 09:21:12;;;;;;;3.40;1.00;;;;;;;12.58;100.00;101306.44;5050057;28;20059;-58
2022/05/30 09:23:37;;;;;;;1.80;0.57;;;;;;;12.92;100.00;101371.31;5051018;28;20067;-59
2022/05/30 09:26:07;;;;;;;1.30;0.75;;;;;;;13.08;100.00;101373.44;5051020;28;20844;-58
2022/05/30 09:28:47;;;;;;;4.90;1.30;;;;;;;12.93;100.00;101306.94;5033701;28;20044;-60
2022/05/30 09:31:19;;;;;;;3.67;0.60;;;;;;;13.42;100.00;101382.81;5050022;28;20399;-58
2022/05/30 09:33:50;;;;;;;4.13;1.45;;;;;;;13.56;100.00;101376.16;5032870;28;20039;-58
2022/05/30 09:36:24;;;;;;;2.92;0.80;;;;;;;13.23;100.00;101367.63;5049496;28;20049;-58
2022/05/30 09:39:00;;;;;;;3.15;1.13;;;;;;;13.13;100.00;101375.03;5050770;28;20029;-58
2022/05/30 09:41:38;;;;;;;2.78;0.70;;;;;;;13.16;100.00;101340.56;5050576;28;20136;-58
2022/05/30 09:44:07;;;;;;;1.77;0.90;;;;;;;13.48;100.00;101334.13;5050727;28;20025;-59
2022/05/30 09:46:57;;;;;;;2.83;1.23;;;;;;;13.51;100.00;101326.91;5049411;28;20410;-57
2022/05/30 09:49:28;;;;;;;2.42;0.68;;;;;;;13.77;100.00;101375.38;5050074;28;20051;-59
2022/05/30 09:51:55;;;;;;;3.10;0.70;;;;;;;13.75;100.00;101340.16;5049063;28;20170;-59
2022/05/30 09:54:26;;;;;;;2.00;0.88;;;;;;;14.21;100.00;101379.00;5048874;28;20033;-57
2022/05/30 09:57:21;;;;;;;3.67;0.60;;;;;;;14.55;100.00;101382.94;5049408;28;20053;-59
2022/05/30 09:59:49;;;;;;;2.45;0.70;;;;;;;14.77;100.00;101348.47;5048343;28;20040;-57
2022/05/30 10:02:29;;;;;;;2.17;0.80;;;;;;;14.84;100.00;101407.38;5049527;28;20037;-58
2022/05/30 10:04:56;;;;;;;5.80;0.98;;;;;;;15.16;100.00;101389.22;5049339;28;20063;-58
2022/05/30 10:07:22;;;;;;;2.58;0.70;;;;;;;14.97;100.00;101403.31;5050341;28;20270;-54
2022/05/30 10:09:50;;;;;;;3.58;0.82;;;;;;;14.81;100.00;101389.81;5048550;28;20045;-56
2022/05/30 10:12:31;;;;;;;3.97;1.17;;;;;;;14.49;100.00;101390.25;5052025;28;20036;-53
2022/05/30 10:14:56;;;;;;;3.97;1.00;;;;;;;14.20;100.00;101370.19;5054250;28;20032;-57
2022/05/30 10:17:29;;;;;;;1.80;0.90;;;;;;;14.02;100.00;101387.63;5036400;28;20476;-56
2022/05/30 10:19:55;;;;;;;2.33;0.90;;;;;;;13.74;100.00;101391.38;5054754;28;20499;-58
2022/05/30 10:28:42;;;;;;;3.05;1.40;;;;;;;13.33;100.00;101406.06;5068134;28;20037;-58
2022/05/30 10:31:20;;;;;;;4.20;1.33;;;;;;;13.34;100.00;101413.06;5054486;28;20480;-57
2022/05/30 10:33:54;;;;;;;1.60;0.90;;;;;;;13.35;100.00;101406.88;5052635;28;20083;-58
2022/05/30 10:36:50;;;;;;;2.63;0.80;;;;;;;13.35;100.00;101406.88;5054317;28;20087;-54
2022/05/30 10:39:40;;;;;;;2.22;0.90;;;;;;;13.50;100.00;101403.69;5053769;28;20579;-56
2022/05/30 10:42:10;;;;;;;3.58;0.93;;;;;;;13.64;100.00;101390.81;5053946;28;20076;-56
2022/05/30 10:44:41;;;;;;;3.90;1.70;;;;;;;13.77;100.00;101380.69;5036039;28;20029;-57
2022/05/30 10:47:19;;;;;;;3.95;0.90;;;;;;;14.09;100.00;101401.50;5053973;28;20506;-57
2022/05/30 10:50:00;;;;;;;2.95;0.90;;;;;;;14.14;100.00;101417.19;5053787;28;20033;-60
2022/05/30 10:52:25;;;;;;;;;;;;;;;14.22;100.00;101412.47;5054203;28;20025;-58
2022/05/30 10:55:04;;;;;;;2.80;0.77;;;;;;;14.08;100.00;101379.47;5053614;28;19912;-59
2022/05/30 10:57:40;;;;;;;3.42;0.90;;;;;;;14.30;100.00;101399.81;5052375;28;20067;-57
2022/05/30 11:00:09;;;;;;;2.42;1.10;;;;;;;14.31;100.00;101367.09;5052627;28;20044;-60
2022/05/30 11:02:54;;;;;;;2.45;0.90;;;;;;;14.56;100.00;101431.50;5053572;28;20029;-57
2022/05/30 11:05:24;;;;;;;4.43;0.80;;;;;;;14.44;100.00;101357.81;5053718;28;20118;-57
2022/05/30 11:08:00;;;;;;;3.75;1.10;;;;;;;14.96;100.00;101372.41;5053593;28;20029;-56
2022/05/30 11:10:39;;;;;;;5.38;1.15;;;;;;;15.62;100.00;101416.44;5053163;28;20036;-58
2022/05/30 11:13:16;;;;;;;3.00;0.80;;;;;;;15.90;100.00;101411.63;5052285;28;20040;-57
2022/05/30 11:15:55;;;;;;;3.28;1.27;;;;;;;15.84;100.00;101372.09;5053550;28;20029;-60
2022/05/30 11:18:54;;;;;;;4.47;0.73;;;;;;;16.62;100.00;101441.03;5052106;28;20442;-58
2022/05/30 11:21:42;;;;;;;4.47;0.80;;;;;;;16.90;100.00;101419.31;5051644;28;20364;-57
2022/05/30 11:24:08;;;;;;;1.85;0.90;;;;;;;17.81;100.00;101444.75;5051218;28;20037;-56
2022/05/30 11:26:55;;;;;;;2.35;1.00;;;;;;;18.06;100.00;101445.19;5051587;28;20399;-58
2022/05/30 11:29:23;;;;;;;2.22;0.63;;;;;;;18.86;100.00;101453.19;5053300;28;20090;-59
2022/05/30 11:32:02;;;;;;;2.60;0.55;;;;;;;18.90;100.00;101447.59;5053054;28;20036;-56
2022/05/30 11:34:55;;;;;;;1.83;0.70;;;;;;;18.06;100.00;101423.88;5052039;28;20037;-60
2022/05/30 11:37:39;;;;;;;2.72;0.47;;;;;;;17.79;100.00;101444.88;5051823;28;20051;-59
2022/05/30 11:40:14;;;;;;;3.10;0.80;;;;;;;17.52;100.00;101445.38;5052680;28;20056;-58
2022/05/30 11:42:49;;;;;;;3.35;1.20;;;;;;;17.58;100.00;101381.22;5051586;28;20040;-57
2022/05/30 11:45:21;;;;;;;3.03;0.90;;;;;;;19.23;100.00;101431.47;5053003;28;20159;-58
2022/05/30 11:47:46;;;;;;;2.72;0.98;;;;;;;19.50;100.00;101445.84;5053122;28;20041;-59